createdAt,value
2023-04-10T00:01:21.178Z,23.50
2023-04-10T00:03:48.645Z,23.57
2023-04-10T00:06:16.116Z,21.07
2023-04-10T00:08:43.373Z,20.23
2023-04-10T00:11:10.702Z,20.00
2023-04-10T00:13:37.894Z,21.67
2023-04-10T00:16:05.318Z,19.13
2023-04-10T00:18:32.525Z,20.63
2023-04-10T00:20:59.744Z,21.03
2023-04-10T00:23:26.975Z,21.23
2023-04-10T00:25:54.340Z,21.43
2023-04-10T00:28:21.548Z,21.33
2023-04-10T00:30:49.530Z,21.03
2023-04-10T00:33:16.935Z,21.30
2023-04-10T00:35:44.145Z,21.80
2023-04-10T00:38:11.945Z,21.90
2023-04-10T00:40:39.759Z,22.23
2023-04-10T00:43:07.146Z,21.83
2023-04-10T00:45:34.518Z,22.43
2023-04-10T00:48:01.918Z,21.80
2023-04-10T00:50:30.355Z,22.80
2023-04-10T00:52:57.970Z,21.60
2023-04-10T00:55:25.342Z,23.17
2023-04-10T00:57:52.622Z,21.73
2023-04-10T01:00:20.470Z,23.07
2023-04-10T01:02:48.679Z,22.87
2023-04-10T01:05:17.797Z,21.23
2023-04-10T01:07:48.352Z,22.30
2023-04-10T01:10:21.274Z,22.60
2023-04-10T01:12:48.565Z,22.67
2023-04-10T01:15:23.894Z,22.30
2023-04-10T01:18:11.504Z,22.90
2023-04-10T01:20:40.164Z,22.57
2023-04-10T01:23:11.166Z,22.13
2023-04-10T01:25:57.203Z,22.60
2023-04-10T01:28:30.784Z,22.23
2023-04-10T01:30:59.826Z,22.07
2023-04-10T01:33:31.249Z,22.20
2023-04-10T01:35:59.969Z,22.77
2023-04-10T01:38:29.859Z,22.63
2023-04-10T01:40:58.919Z,21.27
2023-04-10T01:43:30.103Z,22.50
2023-04-10T01:45:58.664Z,23.07
2023-04-10T01:48:26.345Z,22.90
2023-04-10T01:50:55.681Z,22.20
2023-04-10T01:53:24.441Z,22.60
2023-04-10T01:55:53.633Z,22.43
2023-04-10T01:58:21.581Z,23.00
2023-04-10T02:00:49.270Z,23.27
2023-04-10T02:03:17.479Z,21.67
2023-04-10T02:05:46.117Z,23.20
2023-04-10T02:08:16.294Z,24.10
2023-04-10T02:10:55.473Z,22.57
2023-04-10T02:13:25.321Z,22.87
2023-04-10T02:15:55.934Z,23.63
2023-04-10T02:18:23.877Z,23.13
2023-04-10T02:20:52.758Z,24.00
2023-04-10T02:23:20.826Z,23.13
2023-04-10T02:25:48.043Z,25.23
2023-04-10T02:28:16.673Z,24.33
2023-04-10T02:30:43.945Z,23.40
2023-04-10T02:33:13.363Z,24.43
2023-04-10T02:35:40.675Z,23.27
2023-04-10T02:38:07.975Z,22.57
2023-04-10T02:40:37.754Z,23.10
2023-04-10T02:43:12.149Z,23.43
2023-04-10T02:45:39.503Z,22.87
2023-04-10T02:48:08.503Z,22.37
2023-04-10T02:50:35.897Z,22.77
2023-04-10T02:53:03.242Z,22.33
2023-04-10T02:55:30.897Z,23.50
2023-04-10T02:57:58.209Z,23.07
2023-04-10T03:00:25.917Z,23.97
2023-04-10T03:03:20.106Z,21.93
2023-04-10T03:05:52.404Z,22.30
2023-04-10T03:08:25.678Z,25.30
2023-04-10T03:10:53.017Z,24.00
2023-04-10T03:13:20.440Z,24.30
2023-04-10T03:15:47.983Z,23.60
2023-04-10T03:18:15.439Z,23.03
2023-04-10T03:20:45.306Z,23.50
2023-04-10T03:23:12.668Z,23.73
2023-04-10T03:25:39.934Z,22.43
2023-04-10T03:28:09.052Z,22.07
2023-04-10T03:30:37.186Z,22.40
2023-04-10T03:33:04.688Z,22.47
2023-04-10T03:35:32.254Z,21.10
2023-04-10T03:38:00.282Z,21.50
2023-04-10T03:40:28.034Z,22.27
2023-04-10T03:42:55.975Z,22.23
2023-04-10T03:45:23.688Z,22.30
2023-04-10T03:47:51.023Z,21.60
2023-04-10T03:50:19.180Z,23.20
2023-04-10T03:52:52.264Z,22.67
2023-04-10T03:55:22.075Z,22.53
2023-04-10T03:57:51.246Z,22.23
2023-04-10T04:00:21.482Z,22.37
2023-04-10T04:02:51.032Z,22.63
2023-04-10T04:05:41.149Z,21.07
2023-04-10T04:08:27.087Z,20.87
2023-04-10T04:11:12.534Z,19.47
2023-04-10T04:14:05.973Z,21.00
2023-04-10T04:16:51.498Z,19.73
2023-04-10T04:19:38.987Z,19.67
2023-04-10T04:22:44.620Z,18.73
2023-04-10T04:25:19.792Z,18.80
2023-04-10T04:28:02.116Z,19.23
2023-04-10T04:30:52.351Z,19.67
2023-04-10T04:33:45.710Z,18.90
2023-04-10T04:36:31.886Z,19.33
2023-04-10T04:39:05.326Z,18.67
2023-04-10T04:41:44.010Z,18.60
2023-04-10T04:44:19.764Z,17.80
2023-04-10T04:47:10.578Z,18.13
2023-04-10T04:50:05.909Z,18.80
2023-04-10T04:52:56.358Z,18.47
2023-04-10T04:55:42.560Z,17.40
2023-04-10T04:58:38.987Z,18.93
2023-04-10T05:01:13.490Z,18.67
2023-04-10T05:03:53.498Z,18.10
2023-04-10T05:06:36.908Z,18.80
2023-04-10T05:09:14.516Z,18.53
2023-04-10T05:12:03.877Z,18.13
2023-04-10T05:15:10.121Z,18.03
2023-04-10T05:17:57.731Z,17.80
2023-04-10T05:20:42.194Z,17.53
2023-04-10T05:23:38.421Z,17.17
2023-04-10T05:26:30.850Z,16.77
2023-04-10T05:29:21.122Z,17.67
2023-04-10T05:32:09.247Z,17.37
2023-04-10T05:35:01.311Z,17.37
2023-04-10T05:37:40.926Z,17.13
2023-04-10T05:40:26.916Z,17.23
2023-04-10T05:43:09.989Z,18.37
2023-04-10T05:45:55.953Z,15.70
2023-04-10T05:48:44.048Z,16.30
2023-04-10T05:51:40.206Z,15.80
2023-04-10T05:54:36.823Z,15.53
2023-04-10T05:57:29.013Z,14.87
2023-04-10T06:00:16.246Z,15.00
2023-04-10T06:03:06.889Z,14.53
2023-04-10T06:05:42.915Z,14.70
2023-04-10T06:08:11.077Z,14.47
2023-04-10T06:10:38.359Z,14.07
2023-04-10T06:13:07.198Z,15.33
2023-04-10T06:15:36.146Z,15.03
2023-04-10T06:18:03.457Z,14.87
2023-04-10T06:20:30.751Z,14.73
2023-04-10T06:22:59.337Z,15.47
2023-04-10T06:25:26.759Z,14.90
2023-04-10T06:27:54.114Z,15.70
2023-04-10T06:30:21.435Z,15.07
2023-04-10T06:32:48.775Z,15.10
2023-04-10T06:35:16.799Z,15.40
2023-04-10T06:37:44.027Z,15.27
2023-04-10T06:40:12.090Z,15.17
2023-04-10T06:42:39.336Z,16.17
2023-04-10T06:45:10.383Z,15.80
2023-04-10T06:47:37.785Z,16.43
2023-04-10T06:50:05.373Z,16.33
2023-04-10T06:52:33.347Z,16.00
2023-04-10T06:55:00.782Z,15.33
2023-04-10T06:57:28.891Z,15.67
2023-04-10T06:59:56.323Z,16.33
2023-04-10T07:02:23.818Z,14.93
2023-04-10T07:04:51.799Z,14.80
2023-04-10T07:07:19.601Z,14.73
2023-04-10T07:09:46.914Z,14.60
2023-04-10T07:12:14.568Z,14.47
2023-04-10T07:14:42.317Z,15.70
2023-04-10T07:17:09.820Z,14.93
2023-04-10T07:19:38.198Z,14.90
2023-04-10T07:22:05.553Z,14.43
2023-04-10T07:24:32.817Z,14.97
2023-04-10T07:27:01.705Z,14.37
2023-04-10T07:29:29.234Z,14.87
2023-04-10T07:31:56.770Z,14.60
2023-04-10T07:34:25.723Z,14.17
2023-04-10T07:36:53.405Z,14.13
2023-04-10T07:39:21.077Z,13.63
2023-04-10T07:41:48.402Z,14.57
2023-04-10T07:44:15.740Z,14.73
2023-04-10T07:46:43.018Z,14.70
2023-04-10T07:49:10.303Z,14.90
2023-04-10T07:51:37.758Z,14.63
2023-04-10T07:54:05.323Z,14.57
2023-04-10T07:56:33.002Z,14.80
2023-04-10T07:59:01.144Z,15.07
2023-04-10T08:01:28.846Z,14.47
2023-04-10T08:03:57.001Z,15.00
2023-04-10T08:06:25.548Z,14.93
2023-04-10T08:08:53.386Z,15.97
2023-04-10T08:11:24.848Z,14.80
2023-04-10T08:13:52.922Z,14.50
2023-04-10T08:16:24.118Z,15.47
2023-04-10T08:18:52.712Z,15.03
2023-04-10T08:21:21.129Z,15.87
2023-04-10T08:23:48.403Z,14.27
2023-04-10T08:26:15.711Z,13.70
2023-04-10T08:28:47.305Z,15.23
2023-04-10T08:31:14.673Z,20.43
2023-04-10T08:33:41.988Z,14.70
2023-04-10T08:36:10.053Z,16.43
2023-04-10T08:38:37.516Z,15.70
2023-04-10T08:41:05.939Z,15.67
2023-04-10T08:43:34.621Z,15.37
2023-04-10T08:46:02.530Z,14.50
2023-04-10T08:48:37.930Z,14.23
2023-04-10T08:51:07.313Z,15.07
2023-04-10T08:53:39.454Z,14.57
2023-04-10T08:56:08.023Z,13.93
2023-04-10T08:58:35.769Z,14.53
2023-04-10T09:01:06.293Z,14.60
2023-04-10T09:03:36.009Z,14.27
2023-04-10T09:06:04.494Z,13.17
2023-04-10T09:08:32.072Z,13.57
2023-04-10T09:10:59.328Z,10.90
2023-04-10T09:13:45.098Z,12.33
2023-04-10T09:16:12.663Z,12.43
2023-04-10T09:18:50.762Z,11.70
2023-04-10T09:21:20.851Z,11.57
2023-04-10T09:23:48.639Z,11.00
2023-04-10T09:26:32.368Z,12.03
2023-04-10T09:29:10.958Z,10.57
2023-04-10T09:31:39.430Z,11.10
2023-04-10T09:34:14.669Z,10.60
2023-04-10T09:36:42.823Z,11.33
2023-04-10T09:39:11.300Z,10.60
2023-04-10T09:41:49.086Z,10.70
2023-04-10T09:44:19.590Z,11.00
2023-04-10T09:46:47.360Z,10.33
2023-04-10T09:49:14.657Z,9.53
2023-04-10T09:51:42.864Z,10.07
2023-04-10T09:54:10.373Z,7.77
2023-04-10T09:56:39.042Z,8.77
2023-04-10T09:59:07.614Z,9.10
2023-04-10T10:01:36.033Z,8.07
2023-04-10T10:04:04.281Z,6.00
2023-04-10T10:06:32.601Z,5.90
2023-04-10T10:09:04.569Z,8.20
2023-04-10T10:11:36.238Z,8.20
2023-04-10T10:14:06.337Z,8.93
2023-04-10T10:16:54.286Z,9.73
2023-04-10T10:19:30.987Z,8.87
2023-04-10T10:22:01.420Z,9.50
2023-04-10T10:24:29.234Z,7.97
2023-04-10T10:26:57.779Z,8.50
2023-04-10T10:29:25.344Z,9.13
2023-04-10T10:31:53.729Z,9.20
2023-04-10T10:34:21.853Z,9.00
2023-04-10T10:36:50.362Z,9.37
2023-04-10T10:39:43.491Z,9.17
2023-04-10T10:42:33.722Z,8.90
2023-04-10T10:45:03.787Z,8.97
2023-04-10T10:47:31.496Z,9.37
2023-04-10T10:50:00.343Z,9.33
2023-04-10T10:52:49.764Z,9.43
2023-04-10T10:55:23.856Z,8.80
2023-04-10T10:57:54.217Z,8.40
2023-04-10T11:00:22.322Z,8.90
2023-04-10T11:03:08.253Z,8.57
2023-04-10T11:05:57.373Z,7.70
2023-04-10T11:08:33.784Z,7.87
2023-04-10T11:11:08.302Z,7.47
2023-04-10T11:13:36.532Z,8.27
2023-04-10T11:16:05.102Z,8.00
2023-04-10T11:18:56.076Z,7.67
2023-04-10T11:21:30.377Z,8.30
2023-04-10T11:23:58.138Z,8.57
2023-04-10T11:26:43.518Z,8.50
2023-04-10T11:29:19.666Z,8.30
2023-04-10T11:32:07.235Z,8.80
2023-04-10T11:34:35.348Z,9.27
2023-04-10T11:37:07.155Z,8.70
2023-04-10T11:39:34.460Z,9.73
2023-04-10T11:42:01.756Z,8.43
2023-04-10T11:44:35.332Z,9.57
2023-04-10T11:47:02.780Z,11.00
2023-04-10T11:49:34.654Z,10.97
2023-04-10T11:52:02.160Z,10.33
2023-04-10T11:54:30.249Z,10.53
2023-04-10T11:57:02.371Z,10.73
2023-04-10T11:59:30.364Z,9.77
2023-04-10T12:02:06.428Z,8.97
2023-04-10T12:04:34.121Z,8.97
2023-04-10T12:07:01.838Z,8.60
2023-04-10T12:09:29.177Z,9.30
2023-04-10T12:11:59.812Z,9.23
2023-04-10T12:14:34.844Z,9.33
2023-04-10T12:17:02.999Z,8.83
2023-04-10T12:19:30.873Z,8.80
2023-04-10T12:21:59.064Z,9.97
2023-04-10T12:24:45.281Z,9.77
2023-04-10T12:27:26.579Z,9.43
2023-04-10T12:29:58.502Z,9.60
2023-04-10T12:32:27.632Z,8.90
2023-04-10T12:35:01.296Z,8.87
2023-04-10T12:37:51.012Z,9.30
2023-04-10T12:40:20.479Z,8.60
2023-04-10T12:42:47.742Z,7.87
2023-04-10T12:45:15.667Z,8.10
2023-04-10T12:47:47.974Z,8.00
2023-04-10T12:50:18.758Z,7.37
2023-04-10T12:52:47.203Z,6.57
2023-04-10T12:55:15.831Z,6.63
2023-04-10T12:57:44.887Z,7.57
2023-04-10T13:00:13.603Z,6.80
2023-04-10T13:02:42.133Z,7.10
2023-04-10T13:05:10.070Z,7.00
2023-04-10T13:07:37.663Z,7.07
2023-04-10T13:10:05.918Z,6.43
2023-04-10T13:12:34.784Z,7.60
2023-04-10T13:15:02.776Z,7.70
2023-04-10T13:17:30.333Z,7.13
2023-04-10T13:19:57.656Z,7.90
2023-04-10T13:22:24.927Z,7.43
2023-04-10T13:24:52.256Z,7.47
2023-04-10T13:27:19.505Z,6.73
2023-04-10T13:29:46.770Z,6.70
2023-04-10T13:32:14.122Z,6.57
2023-04-10T13:34:41.444Z,7.20
2023-04-10T13:37:12.993Z,6.10
2023-04-10T13:39:40.556Z,5.63
2023-04-10T13:42:07.807Z,6.17
2023-04-10T13:44:35.087Z,6.00
2023-04-10T13:47:02.396Z,5.67
2023-04-10T13:49:32.837Z,5.47
2023-04-10T13:52:00.232Z,5.57
2023-04-10T13:54:28.302Z,4.87
2023-04-10T13:56:56.153Z,6.47
2023-04-10T13:59:23.461Z,6.33
2023-04-10T14:01:53.640Z,5.63
2023-04-10T14:04:21.128Z,5.00
2023-04-10T14:06:49.432Z,5.00
2023-04-10T14:09:18.686Z,5.00
2023-04-10T14:11:46.159Z,4.70
2023-04-10T14:14:13.559Z,5.17
2023-04-10T14:17:00.068Z,5.20
2023-04-10T14:19:27.424Z,4.77
2023-04-10T14:21:54.661Z,4.93
2023-04-10T14:24:22.149Z,5.10
2023-04-10T14:26:49.448Z,4.83
2023-04-10T14:29:20.191Z,4.63
2023-04-10T14:31:57.925Z,4.70
2023-04-10T14:34:25.579Z,4.97
2023-04-10T14:36:55.892Z,4.30
2023-04-10T14:39:26.794Z,3.90
2023-04-10T14:41:54.149Z,4.57
2023-04-10T14:44:21.520Z,4.50
2023-04-10T14:46:48.833Z,4.83
2023-04-10T14:49:16.257Z,5.27
2023-04-10T14:51:44.424Z,4.80
2023-04-10T14:54:11.881Z,4.40
2023-04-10T14:56:39.220Z,4.97
2023-04-10T14:59:07.100Z,4.93
2023-04-10T15:01:35.870Z,5.30
2023-04-10T15:04:03.459Z,4.60
2023-04-10T15:06:32.529Z,5.20
2023-04-10T15:08:59.975Z,5.40
2023-04-10T15:11:27.318Z,6.07
2023-04-10T15:13:54.795Z,5.70
2023-04-10T15:16:22.329Z,5.70
2023-04-10T15:18:49.794Z,5.47
2023-04-10T15:21:17.184Z,5.50
2023-04-10T15:23:44.843Z,5.80
2023-04-10T15:26:13.952Z,5.50
2023-04-10T15:28:41.798Z,5.40
2023-04-10T15:31:09.694Z,5.87
2023-04-10T15:33:38.192Z,5.77
2023-04-10T15:36:06.064Z,6.03
2023-04-10T15:38:36.505Z,5.40
2023-04-10T15:41:13.554Z,4.57
2023-04-10T15:43:42.413Z,6.00
2023-04-10T15:46:09.742Z,6.20
2023-04-10T15:48:37.132Z,5.43
2023-04-10T15:51:05.437Z,6.43
2023-04-10T15:53:33.008Z,6.13
2023-04-10T15:56:00.213Z,5.90
2023-04-10T15:58:27.579Z,6.47
2023-04-10T16:00:54.936Z,6.07
2023-04-10T16:03:22.461Z,5.93
2023-04-10T16:05:49.974Z,5.53
2023-04-10T16:08:17.262Z,6.40
2023-04-10T16:10:44.549Z,5.90
2023-04-10T16:13:11.998Z,5.63
2023-04-10T16:15:39.608Z,5.13
2023-04-10T16:18:10.155Z,6.10
2023-04-10T16:20:37.439Z,5.33
2023-04-10T16:23:04.651Z,5.97
2023-04-10T16:25:31.955Z,5.90
2023-04-10T16:27:59.235Z,5.93
2023-04-10T16:30:26.743Z,6.30
2023-04-10T16:32:53.983Z,5.97
2023-04-10T16:35:22.404Z,6.10
2023-04-10T16:37:49.809Z,6.17
2023-04-10T16:40:18.659Z,6.07
2023-04-10T16:42:45.981Z,6.10
2023-04-10T16:45:13.294Z,6.17
2023-04-10T16:47:40.793Z,5.80
2023-04-10T16:50:08.704Z,5.53
2023-04-10T16:52:37.202Z,5.93
2023-04-10T16:55:04.639Z,5.43
2023-04-10T16:57:32.111Z,6.23
2023-04-10T16:59:59.528Z,6.10
2023-04-10T17:02:28.226Z,6.10
2023-04-10T17:04:56.331Z,5.87
2023-04-10T17:07:23.956Z,5.53
2023-04-10T17:09:51.381Z,5.67
2023-04-10T17:12:18.747Z,5.87
2023-04-10T17:14:46.103Z,6.27
2023-04-10T17:17:13.417Z,5.63
2023-04-10T17:19:40.653Z,6.43
2023-04-10T17:22:15.985Z,5.80
2023-04-10T17:24:43.921Z,5.93
2023-04-10T17:27:11.921Z,6.00
2023-04-10T17:29:40.434Z,6.33
2023-04-10T17:32:08.611Z,5.57
2023-04-10T17:34:36.156Z,5.53
2023-04-10T17:37:03.479Z,5.87
2023-04-10T17:39:30.736Z,5.80
2023-04-10T17:41:58.006Z,6.17
2023-04-10T17:44:25.357Z,5.83
2023-04-10T17:46:54.093Z,6.03
2023-04-10T17:49:22.244Z,6.20
2023-04-10T17:51:49.944Z,6.03
2023-04-10T17:54:17.192Z,6.00
2023-04-10T17:56:44.525Z,5.73
2023-04-10T17:59:11.883Z,6.50
2023-04-10T18:01:39.219Z,5.63
2023-04-10T18:04:06.753Z,6.43
2023-04-10T18:09:19.563Z,6.03
2023-04-10T18:11:48.437Z,7.63
2023-04-10T18:14:15.722Z,6.83
2023-04-10T18:16:43.114Z,6.13
2023-04-10T18:19:10.427Z,6.20
2023-04-10T18:21:37.825Z,5.73
2023-04-10T18:24:05.428Z,6.10
2023-04-10T18:26:34.818Z,6.90
2023-04-10T18:29:02.255Z,6.17
2023-04-10T18:31:29.566Z,6.43
2023-04-10T18:34:07.170Z,7.73
2023-04-10T18:36:35.418Z,7.10
2023-04-10T18:39:03.002Z,7.73
2023-04-10T18:41:30.272Z,8.07
2023-04-10T18:44:05.018Z,8.40
2023-04-10T18:46:33.150Z,8.50
2023-04-10T18:49:01.499Z,9.70
2023-04-10T18:51:28.966Z,10.00
2023-04-10T18:53:56.432Z,10.07
2023-04-10T18:56:23.885Z,9.60
2023-04-10T18:58:51.178Z,9.63
2023-04-10T19:01:18.846Z,9.60
2023-04-10T19:03:51.911Z,9.60
2023-04-10T19:06:23.867Z,10.10
2023-04-10T19:08:51.724Z,9.37
2023-04-10T19:11:19.342Z,10.23
2023-04-10T19:13:46.589Z,9.47
2023-04-10T19:16:14.683Z,10.20
2023-04-10T19:18:42.118Z,9.47
2023-04-10T19:21:09.356Z,9.63
2023-04-10T19:23:36.649Z,9.67
2023-04-10T19:26:04.029Z,9.60
2023-04-10T19:28:32.564Z,10.00
2023-04-10T19:30:59.965Z,9.50
2023-04-10T19:33:27.379Z,9.60
2023-04-10T19:35:54.749Z,10.30
2023-04-10T19:38:22.250Z,9.50
2023-04-10T19:40:49.777Z,9.90
2023-04-10T19:43:17.090Z,9.50
2023-04-10T19:45:44.402Z,10.23
2023-04-10T19:48:12.249Z,9.80
2023-04-10T19:50:39.555Z,9.93
2023-04-10T19:53:07.209Z,10.00
2023-04-10T19:55:34.632Z,8.37
2023-04-10T19:58:02.005Z,12.57
2023-04-10T20:00:29.308Z,10.50
2023-04-10T20:02:56.742Z,9.67
2023-04-10T20:05:24.115Z,8.87
2023-04-10T20:07:51.461Z,9.30
2023-04-10T20:10:18.698Z,9.27
2023-04-10T20:12:45.866Z,9.63
2023-04-10T20:15:13.124Z,9.17
2023-04-10T20:17:40.635Z,9.20
2023-04-10T20:20:08.233Z,9.10
2023-04-10T20:22:35.634Z,9.43
2023-04-10T20:25:03.060Z,8.80
2023-04-10T20:27:30.429Z,9.67
2023-04-10T20:29:57.634Z,9.27
2023-04-10T20:32:25.030Z,9.70
2023-04-10T20:34:52.379Z,9.10
2023-04-10T20:37:21.877Z,9.30
2023-04-10T20:39:49.888Z,8.77
2023-04-10T20:42:17.231Z,8.63
2023-04-10T20:44:44.478Z,9.37
2023-04-10T20:47:11.802Z,9.10
2023-04-10T20:49:39.093Z,8.40
2023-04-10T20:52:07.170Z,8.57
2023-04-10T20:54:34.629Z,8.33
2023-04-10T20:57:02.133Z,9.10
2023-04-10T20:59:30.074Z,8.57
2023-04-10T21:01:57.581Z,8.70
2023-04-10T21:04:25.049Z,8.83
2023-04-10T21:06:52.485Z,7.80
2023-04-10T21:09:20.562Z,9.63
2023-04-10T21:11:48.050Z,8.77
2023-04-10T21:14:15.677Z,8.00
2023-04-10T21:16:43.641Z,7.77
2023-04-10T21:19:10.996Z,8.00
2023-04-10T21:21:38.307Z,7.87
2023-04-10T21:24:09.997Z,8.37
2023-04-10T21:26:39.034Z,7.80
2023-04-10T21:29:06.445Z,7.97
2023-04-10T21:31:34.041Z,7.80
2023-04-10T21:34:01.525Z,7.70
2023-04-10T21:36:29.324Z,7.67
2023-04-10T21:38:56.974Z,7.10
2023-04-10T21:41:24.562Z,7.40
2023-04-10T21:43:51.860Z,7.50
2023-04-10T21:46:19.432Z,7.83
2023-04-10T21:48:46.774Z,7.83
2023-04-10T21:51:14.269Z,7.50
2023-04-10T21:53:41.480Z,7.47
2023-04-10T21:56:08.983Z,6.70
2023-04-10T21:58:38.029Z,7.20
2023-04-10T22:01:06.586Z,7.00
2023-04-10T22:03:34.428Z,6.97
2023-04-10T22:06:02.011Z,7.03
2023-04-10T22:08:29.453Z,6.73
2023-04-10T22:10:56.657Z,6.80
2023-04-10T22:13:30.836Z,7.20
2023-04-10T22:15:59.067Z,6.97
2023-04-10T22:18:26.454Z,7.13
2023-04-10T22:20:53.797Z,7.30
2023-04-10T22:23:21.253Z,7.33
2023-04-10T22:25:48.491Z,7.57
2023-04-10T22:28:15.716Z,7.33
2023-04-10T22:30:43.053Z,6.50
2023-04-10T22:33:11.830Z,6.73
2023-04-10T22:35:39.545Z,7.23
2023-04-10T22:38:07.848Z,7.03
2023-04-10T22:40:35.675Z,6.60
2023-04-10T22:43:03.065Z,6.80
2023-04-10T22:45:30.521Z,7.20
2023-04-10T22:47:57.989Z,7.00
2023-04-10T22:50:25.327Z,7.17
2023-04-10T22:52:52.637Z,7.67
2023-04-10T22:55:20.152Z,7.27
2023-04-10T22:57:48.642Z,7.50
2023-04-10T23:00:16.659Z,7.60
2023-04-10T23:02:44.282Z,6.67
2023-04-10T23:05:11.644Z,7.40
2023-04-10T23:07:38.953Z,7.17
2023-04-10T23:10:06.550Z,7.23
2023-04-10T23:12:33.868Z,7.47
2023-04-10T23:15:01.298Z,7.20
2023-04-10T23:17:28.842Z,7.67
2023-04-10T23:19:56.138Z,7.10
2023-04-10T23:22:23.447Z,7.37
2023-04-10T23:24:57.457Z,7.03
2023-04-10T23:27:25.018Z,6.83
2023-04-10T23:29:52.347Z,7.00
2023-04-10T23:32:19.637Z,6.57
2023-04-10T23:34:46.925Z,7.10
2023-04-10T23:37:14.346Z,6.90
2023-04-10T23:39:41.634Z,6.60
2023-04-10T23:42:08.858Z,6.53
2023-04-10T23:44:36.702Z,6.67
2023-04-10T23:47:04.028Z,6.80
2023-04-10T23:49:31.271Z,6.73
2023-04-10T23:51:58.520Z,6.97
2023-04-10T23:54:25.762Z,6.37
2023-04-10T23:56:52.997Z,6.77
2023-04-10T23:59:20.286Z,5.93
